x

Virginia Beach 64 Nm East Of Virginia Beach, Va (44014) Wave Buoy

5:50am - Mon 29th May 2017 All times are EDT. -4 hours from GMT.

  • Sig Wave height 3.6ft
  • Swell Direction
  • Peak Period 6s
  • Average Period 5s
  • Wind
    4mph, 7mph gusts
  • Sea Temp 64°f
  • 空気 Temp 64°f
  • Sea Pressure 1009.7mb
  • Virginia Beach 64 Nm East Of Virginia Beach, Va
  • Virginia Beach 64 Nm East Of Virginia Beach, Va

More Historic Weather Station data

Upgrade to MSW Pro to gain access to the past 30 days of data for over 8000 Wavebouys and Weather Stations around the globe.

Join Pro

Comparision Forecast

View Surf forecast
   
Mon 05/29 5:50am 3.5ft 6s 5s 4 7 mph 1009.7mb 64f 64f
4:50am 3.5ft 6s 5s 7 9 mph 1009.1mb 64f 64f
3:50am 3.5ft 6s 5s 9 9 mph 1008.8mb 64f 63f
2:50am 3ft 7s 5s 11 11 mph 1009mb 64f 63f
1:50am 3ft 6s 5s 9 11 mph 1009mb 64f 63f
12:50am 2.5ft 7s 5s 9 9 mph 1009.1mb 64f 64f
Sun 05/28 11:50pm 2.5ft 6s 5s 7 9 mph 1009.2mb 64f 64f
10:50pm 2.5ft 6s 5s 9 9 mph 1009mb 65f 66f
9:50pm 2.5ft 6s 5s 7 7 mph 1008.6mb 65f 66f
8:50pm 2.5ft 6s 5s 7 7 mph 1008.4mb 65f 66f
7:50pm 3ft 7s 4s 9 11 mph 1009.1mb 65f 67f
6:50pm 2.5ft 7s 4s 11 13 mph 1008.5mb 66f 68f
5:50pm 2.5ft 6s 4s 16 20 mph 1008.5mb 67f 68f
4:50pm 3ft 6s 5s 11 11 mph 1008.8mb 67f 68f
3:50pm 3ft 6s 5s 9 9 mph 1009.3mb 67f 69f
2:50pm 3ft 6s 5s 7 9 mph 1009.8mb 67f 69f
1:50pm 3ft 6s 5s 7 7 mph 1011mb 67f 68f
12:50pm 2.5ft 7s 5s 4 4 mph 1012mb 66f 68f
11:50am 2.5ft 7s 5s 9 9 mph 1011.6mb 66f 68f
10:50am 2.5ft 7s 5s 4 7 mph 1011.8mb 66f 67f
9:50am 2.5ft 5s 5s 4 4 mph 1011.6mb 65f 68f
8:50am 2.5ft 5s 5s 2 4 mph 1011.7mb 64f 66f
7:50am 2.5ft 5s 5s 7 7 mph 1010.9mb 64f 65f
6:50am 2.5ft 5s 5s 2 4 mph 1011.1mb 64f 65f
5:50am 3ft 5s 5s 4 7 mph 1010.6mb 64f 65f
4:50am 3ft 6s 5s 2 2 mph 1010.7mb 64f 66f
3:50am 3ft 6s 5s 7 9 mph 1010.5mb 64f 66f
2:50am 3ft 5s 5s 16 18 mph 1010.6mb 64f 69f
1:50am 3ft 7s 5s 11 11 mph 1011.3mb 65f 67f
12:50am 2.5ft 8s 5s 13 16 mph 1011.9mb 65f 67f
Sat 05/27 11:50pm 2.5ft 7s 5s 7 7 mph 1011.7mb 65f 68f
10:50pm 2.5ft 8s 5s 16 18 mph 1011.5mb 65f 69f
9:50pm 2.5ft 8s 5s 9 9 mph 1011.4mb 66f 68f
8:50pm 2.5ft 7s 5s 7 7 mph 1011.7mb 66f 68f
7:50pm 2.5ft 8s 6s 7 9 mph 1012.1mb 67f 69f
6:50pm 2.5ft 7s 5s 9 9 mph 1011.7mb 68f 69f
5:50pm 2.5ft 7s 6s 4 4 mph 1012.1mb 67f 69f
4:50pm 3ft 8s 5s 4 7 mph 1012.3mb 67f 68f
3:50pm 3.5ft 8s 6s 2 4 mph 1013.1mb 66f 69f
2:50pm 3.5ft 7s 6s 4 4 mph 1013.1mb 66f 67f
1:50pm 3.5ft 8s 6s 9 9 mph 1013.1mb 65f 67f
12:50pm 3ft 7s 6s 7 9 mph 1013.7mb 65f 67f
11:50am 3ft 8s 6s 4 7 mph 1013.8mb 64f 66f
10:50am 3.5ft 8s 6s 7 7 mph 1013.9mb 64f 66f
9:50am 3ft 7s 6s 4 4 mph 1014.6mb 63f 65f
8:50am 3ft 7s 6s 2 4 mph 1014.7mb 62f 66f
7:50am 3ft 8s 6s 2 4 mph 1014.1mb 62f 65f
6:50am 3.5ft 7s 6s 2 4 mph 1014.5mb 62f 65f
5:50am 3.5ft 7s 5s 2 4 mph 1013.9mb 62f 65f
4:50am 3.5ft 7s 5s 4 7 mph 1013.8mb 62f 65f
3:50am 3ft 7s 5s 7 7 mph 1013.5mb 62f 66f
2:50am 3.5ft 7s 6s 7 7 mph 1013.6mb 62f 65f
1:50am 3.5ft 7s 5s 4 4 mph 1013.9mb 62f 66f
12:50am 3.5ft 7s 5s 11 16 mph 1013.8mb 63f 68f
Fri 05/26 11:50pm 3ft 8s 5s 7 9 mph 1013.4mb 63f 65f
10:50pm 3.5ft 8s 5s 7 9 mph 1013.3mb 63f 65f
9:50pm 3.5ft 8s 6s 9 11 mph 1012.6mb 63f 67f
8:50pm 3.5ft 7s 6s 9 9 mph 1011.8mb 63f 65f
7:50pm 3.5ft 8s 6s 7 9 mph 1011.4mb 64f 65f
6:50pm 3.5ft 8s 5s 7 9 mph 1010.8mb 63f 65f
5:50pm 4ft 8s 6s 7 7 mph 1010.6mb 63f 65f
4:50pm 4.5ft 8s 6s 7 7 mph 1010.2mb 63f 65f
3:50pm 4.5ft 7s 5s 7 7 mph 1010mb 62f 65f
2:50pm 6ft 8s 6s 9 11 mph 1009.9mb 62f 65f
12:50pm 6ft 7s 6s 13 13 mph 1009.9mb 61f 64f
11:50am 6ft 7s 5s 13 16 mph 1009.8mb 61f 64f
10:50am 6ft 7s 5s 18 20 mph 1009.3mb 61f 64f
9:50am 6.5ft 8s 6s 18 20 mph 1009.3mb 62f 64f
8:50am 6.5ft 7s 5s 20 25 mph 1009mb 62f 64f
7:50am 6ft 8s 5s 22 27 mph 1008.2mb 62f 64f
6:50am 6.5ft 8s 5s 20 25 mph 1007.6mb 62f 64f
5:50am 6ft 8s 6s 20 25 mph 1007mb 62f 64f
4:50am 6.5ft 8s 6s 20 22 mph 1005.9mb 63f 65f
3:50am 7ft 8s 6s 22 27 mph 1005.5mb 63f 66f
2:50am 7ft 8s 6s 20 25 mph 1005.1mb 63f 66f
1:50am 7ft 8s 6s 20 25 mph 1004.6mb 63f 65f
12:50am 7ft 8s 6s 22 25 mph 1004.7mb 63f 65f
Thu 05/25 11:50pm 7ft 8s 6s 20 25 mph 1004.2mb 63f 65f
10:50pm 7.5ft 8s 6s 20 25 mph 1003.4mb 63f 65f
9:50pm 7ft 8s 6s 20 25 mph 1002.3mb 63f 66f
8:50pm 7.5ft 8s 6s 18 22 mph 1001.3mb 63f 64f
7:50pm 7ft 8s 6s 29 40 mph 1001mb 64f 65f
6:50pm 7.5ft 8s 6s 29 38 mph 999.4mb 64f 67f
5:50pm 7ft 6s 6s 27 31 mph 998.8mb 64f 69f
4:50pm 7ft 8s 6s 25 29 mph 999.2mb 65f 69f
3:50pm 6ft 7s 6s 25 29 mph 1000.2mb 66f 69f
2:50pm 6ft 7s 6s 18 22 mph 1000.7mb 66f 69f
1:50pm 6ft 8s 6s 18 18 mph 1001.6mb 65f 68f
12:50pm 6ft 7s 6s 16 20 mph 1001.6mb 65f 68f
11:50am 6ft 7s 6s 13 16 mph 1002mb 65f 67f